Time;durP1;ratioP1;P1;durP2;ratioP2;P2;SDS_P1;SDS_P2;PMS_P1;PMS_P2;Temp;Humidity;BMP_temperature;BMP_pressure;BME280_temperature;BME280_humidity;BME280_pressure;Samples;Min_cycle;Max_cycle;Signal;HPM_P1;HPM_P2
2022/04/09 00:01:03;;;;;;;17.17;4.15;;;4.40;99.90;;;;;;5031978;28;20029;-58
2022/04/09 00:03:29;;;;;;;22.02;4.25;;;4.40;99.90;;;;;;5032131;28;20079;-55
2022/04/09 00:05:55;;;;;;;23.15;4.38;;;4.30;99.90;;;;;;5031754;28;20449;-57
2022/04/09 00:08:20;;;;;;;4.28;3.60;;;4.20;99.90;;;;;;5031284;28;20767;-57
2022/04/09 00:10:46;;;;;;;29.98;4.80;;;4.40;99.90;;;;;;5031267;28;20024;-55
2022/04/09 00:13:12;;;;;;;3.85;3.55;;;4.50;99.90;;;;;;5031526;28;20400;-57
2022/04/09 00:15:37;;;;;;;4.28;3.47;;;4.70;99.90;;;;;;5031672;28;20035;-56
2022/04/09 00:18:03;;;;;;;7.55;3.78;;;4.70;99.90;;;;;;5031457;28;20095;-58
2022/04/09 00:20:29;;;;;;;4.20;3.80;;;4.80;99.90;;;;;;5031685;28;20025;-57
2022/04/09 00:22:55;;;;;;;3.45;3.13;;;4.90;99.90;;;;;;5031640;28;20641;-53
2022/04/09 00:25:24;;;;;;;3.50;3.15;;;5.00;99.90;;;;;;5031598;28;20464;-52
2022/04/09 00:27:53;;;;;;;3.97;3.42;;;5.00;99.90;;;;;;5031407;28;20660;-56
2022/04/09 00:30:19;;;;;;;2.80;2.60;;;5.10;99.90;;;;;;5030900;28;20094;-58
2022/04/09 00:32:45;;;;;;;3.17;2.90;;;5.10;99.90;;;;;;5031046;28;20532;-57
2022/04/09 00:35:11;;;;;;;4.25;3.33;;;5.10;99.90;;;;;;5031201;28;20065;-58
2022/04/09 00:37:44;;;;;;;4.68;3.33;;;5.20;99.90;;;;;;5031078;28;20413;-57
2022/04/09 00:40:11;;;;;;;3.33;2.70;;;5.20;99.90;;;;;;5031054;28;20017;-58
2022/04/09 00:42:37;;;;;;;5.30;3.00;;;5.20;99.90;;;;;;5031360;28;20492;-53
2022/04/09 00:45:03;;;;;;;4.50;2.90;;;5.20;99.90;;;;;;5031523;28;20155;-59
2022/04/09 00:47:28;;;;;;;5.80;2.63;;;5.20;99.90;;;;;;5031045;28;20095;-57
2022/04/09 00:49:54;;;;;;;4.85;2.80;;;5.20;99.90;;;;;;5031492;28;20581;-56
2022/04/09 00:52:21;;;;;;;4.75;2.92;;;5.20;99.90;;;;;;5030848;28;20459;-57
2022/04/09 00:54:48;;;;;;;3.45;3.10;;;5.10;99.90;;;;;;5030861;28;20053;-55
2022/04/09 00:57:15;;;;;;;2.90;2.70;;;5.10;99.90;;;;;;5030627;28;20041;-55
2022/04/09 00:59:45;;;;;;;6.53;2.90;;;5.30;99.90;;;;;;5030930;28;20022;-58
2022/04/09 01:02:12;;;;;;;4.10;3.13;;;5.40;99.90;;;;;;5030537;28;20560;-58
2022/04/09 01:04:45;;;;;;;2.92;2.72;;;5.50;99.90;;;;;;5030901;28;20091;-57
2022/04/09 01:07:10;;;;;;;5.23;2.60;;;5.50;99.90;;;;;;5031051;28;20025;-58
2022/04/09 01:09:36;;;;;;;3.13;2.83;;;5.50;99.90;;;;;;5029814;28;20276;-58
2022/04/09 01:12:03;;;;;;;14.27;3.25;;;5.50;99.90;;;;;;5030926;28;20111;-58
2022/04/09 01:14:34;;;;;;;3.50;3.20;;;5.60;99.90;;;;;;5031127;28;20041;-58
2022/04/09 01:17:00;;;;;;;3.70;3.22;;;5.50;99.90;;;;;;5031104;28;20048;-58
2022/04/09 01:19:25;;;;;;;4.15;3.28;;;5.60;99.90;;;;;;5029912;28;20017;-58
2022/04/09 01:21:54;;;;;;;3.63;3.30;;;5.60;99.90;;;;;;5031046;28;20029;-58
2022/04/09 01:24:19;;;;;;;7.25;3.47;;;5.60;99.90;;;;;;5030836;28;20021;-57
2022/04/09 01:26:45;;;;;;;3.70;3.10;;;5.70;99.90;;;;;;5031191;28;20028;-58
2022/04/09 01:29:11;;;;;;;4.45;3.80;;;5.70;99.90;;;;;;5031284;28;20036;-58
2022/04/09 01:31:37;;;;;;;4.10;3.80;;;5.80;99.90;;;;;;5031195;28;20030;-58
2022/04/09 01:34:02;;;;;;;4.90;3.25;;;6.00;99.90;;;;;;5031034;28;20022;-58
2022/04/09 01:36:28;;;;;;;3.25;2.95;;;6.00;99.90;;;;;;5030578;28;20026;-58
2022/04/09 01:38:54;;;;;;;3.30;3.08;;;6.20;99.90;;;;;;5031937;28;20469;-58
2022/04/09 01:41:19;;;;;;;3.80;3.20;;;6.20;99.90;;;;;;5033056;28;20370;-59
2022/04/09 01:43:45;;;;;;;3.40;3.10;;;6.20;99.90;;;;;;5034812;28;20022;-57
2022/04/09 01:46:10;;;;;;;4.15;3.70;;;6.30;99.90;;;;;;5034877;28;20064;-58
2022/04/09 01:48:36;;;;;;;5.47;3.95;;;6.30;99.90;;;;;;5033364;28;20587;-56
2022/04/09 01:51:02;;;;;;;3.28;2.90;;;6.40;99.90;;;;;;5034682;28;20091;-59
2022/04/09 01:53:27;;;;;;;3.25;2.67;;;6.40;99.90;;;;;;5033206;28;20381;-55
2022/04/09 01:55:53;;;;;;;3.13;2.92;;;6.50;99.90;;;;;;5034486;28;20033;-56
2022/04/09 01:58:20;;;;;;;3.92;3.25;;;6.50;99.90;;;;;;5034356;28;20372;-59
2022/04/09 02:00:46;;;;;;;6.93;3.50;;;6.50;99.90;;;;;;5034655;28;20018;-57
2022/04/09 02:03:12;;;;;;;4.15;3.00;;;6.50;99.90;;;;;;5034386;28;20076;-58
2022/04/09 02:05:37;;;;;;;4.00;3.38;;;6.60;99.90;;;;;;5034580;28;20052;-55
2022/04/09 02:08:04;;;;;;;3.78;3.30;;;6.60;99.90;;;;;;5034456;28;20030;-58
2022/04/09 02:10:31;;;;;;;3.42;3.13;;;6.50;99.90;;;;;;5033799;28;20026;-57
2022/04/09 02:12:57;;;;;;;5.20;3.20;;;6.50;99.90;;;;;;5033889;28;20029;-57
2022/04/09 02:15:23;;;;;;;3.80;3.50;;;6.50;99.90;;;;;;5033689;28;20049;-59
2022/04/09 02:17:48;;;;;;;3.35;3.05;;;6.50;99.90;;;;;;5032811;28;20037;-57
2022/04/09 02:20:15;;;;;;;3.40;3.10;;;6.60;99.90;;;;;;5034027;28;20101;-58
2022/04/09 02:22:45;;;;;;;3.72;3.20;;;6.60;99.90;;;;;;5034155;28;20033;-57
2022/04/09 02:25:13;;;;;;;6.07;3.10;;;6.60;99.90;;;;;;5033629;28;20491;-58
2022/04/09 02:27:39;;;;;;;2.78;2.58;;;6.60;99.90;;;;;;5033990;28;20074;-56
2022/04/09 02:30:07;;;;;;;3.95;3.15;;;6.70;99.90;;;;;;5033896;28;20026;-57
2022/04/09 02:32:44;;;;;;;2.08;1.98;;;6.80;99.90;;;;;;5033859;28;20552;-55
2022/04/09 02:35:11;;;;;;;4.38;2.33;;;7.20;99.90;;;;;;5033480;28;20026;-58
2022/04/09 02:37:37;;;;;;;2.28;1.95;;;7.50;99.90;;;;;;5032022;28;20691;-58
2022/04/09 02:40:03;;;;;;;1.88;1.70;;;7.80;99.90;;;;;;5033554;28;20034;-59
2022/04/09 02:42:29;;;;;;;1.75;1.65;;;8.30;99.90;;;;;;5033893;28;20021;-58
2022/04/09 02:44:55;;;;;;;1.92;1.73;;;8.40;99.90;;;;;;5033066;28;20484;-58
2022/04/09 02:47:21;;;;;;;1.58;1.48;;;8.60;99.90;;;;;;5032872;28;20492;-57
2022/04/09 02:49:47;;;;;;;1.60;1.50;;;8.80;99.90;;;;;;5032164;28;20085;-57
2022/04/09 02:52:12;;;;;;;4.03;1.48;;;9.20;99.90;;;;;;5033551;28;20143;-58
2022/04/09 02:54:38;;;;;;;1.60;1.50;;;9.30;99.90;;;;;;5033412;28;20045;-57
2022/04/09 02:57:04;;;;;;;2.28;1.45;;;9.40;99.90;;;;;;5033376;28;20025;-57
2022/04/09 02:59:30;;;;;;;3.17;1.52;;;9.30;99.90;;;;;;5032751;28;20028;-58
2022/04/09 03:01:55;;;;;;;1.05;1.05;;;9.20;99.90;;;;;;5032129;28;20400;-57
2022/04/09 03:04:21;;;;;;;1.23;1.23;;;9.00;99.90;;;;;;5030767;28;20383;-56
2022/04/09 03:06:47;;;;;;;1.00;1.00;;;8.80;99.90;;;;;;5031736;28;20021;-58
2022/04/09 03:09:12;;;;;;;1.10;1.00;;;8.80;99.90;;;;;;5030005;28;20060;-57
2022/04/09 03:11:38;;;;;;;1.10;1.10;;;8.60;99.90;;;;;;5031500;28;20423;-58
2022/04/09 03:14:04;;;;;;;1.05;1.00;;;8.50;99.90;;;;;;5031173;28;20033;-58
2022/04/09 03:16:32;;;;;;;2.70;1.00;;;8.50;99.90;;;;;;5033068;28;20044;-57
2022/04/09 03:18:57;;;;;;;1.20;1.20;;;8.40;99.90;;;;;;5030990;28;20432;-57
2022/04/09 03:21:23;;;;;;;1.10;1.10;;;8.30;99.90;;;;;;5030496;28;20022;-57
2022/04/09 03:23:49;;;;;;;1.08;1.08;;;8.30;99.90;;;;;;5031507;28;20040;-55
2022/04/09 03:26:14;;;;;;;1.17;1.17;;;8.30;99.90;;;;;;5031617;28;20105;-58
2022/04/09 03:28:40;;;;;;;1.10;1.10;;;8.30;99.90;;;;;;5031617;28;20057;-57
2022/04/09 03:31:08;;;;;;;3.53;1.48;;;8.20;99.90;;;;;;5031685;28;20061;-56
2022/04/09 03:33:34;;;;;;;1.08;1.08;;;8.00;99.90;;;;;;5031539;28;20028;-58
2022/04/09 03:36:00;;;;;;;1.23;1.23;;;8.00;99.90;;;;;;5032229;28;20025;-56
2022/04/09 03:38:26;;;;;;;1.08;1.08;;;7.90;99.90;;;;;;5032585;28;20345;-57
2022/04/09 03:40:52;;;;;;;1.30;1.20;;;7.70;99.90;;;;;;5032553;28;20109;-54
2022/04/09 03:43:18;;;;;;;1.33;1.30;;;7.60;99.90;;;;;;5032654;28;20101;-58
2022/04/09 03:45:43;;;;;;;1.38;1.38;;;7.50;99.90;;;;;;5032525;28;20029;-57
2022/04/09 03:48:09;;;;;;;1.35;1.35;;;7.50;99.90;;;;;;5031505;28;20030;-57
2022/04/09 03:50:36;;;;;;;1.20;1.20;;;7.30;99.90;;;;;;5032201;28;20354;-58
2022/04/09 03:53:03;;;;;;;1.20;1.20;;;7.30;99.90;;;;;;5032031;28;20087;-57
2022/04/09 03:55:29;;;;;;;1.13;1.13;;;7.20;99.90;;;;;;5031415;28;20025;-56
2022/04/09 03:57:56;;;;;;;2.20;1.17;;;7.10;99.90;;;;;;5030139;28;20048;-55
2022/04/09 04:00:21;;;;;;;1.30;1.30;;;7.10;99.90;;;;;;5031987;28;20057;-58
2022/04/09 04:02:47;;;;;;;1.70;1.65;;;6.90;99.90;;;;;;5032001;28;20026;-57
2022/04/09 04:05:13;;;;;;;1.40;1.40;;;6.90;99.90;;;;;;5032026;28;20057;-56
2022/04/09 04:07:46;;;;;;;1.27;1.27;;;6.80;99.90;;;;;;5031530;28;20128;-58
2022/04/09 04:10:12;;;;;;;1.27;1.27;;;6.80;99.90;;;;;;5031178;28;20128;-58
2022/04/09 04:12:40;;;;;;;1.08;1.08;;;6.70;99.90;;;;;;5031044;28;20022;-57
2022/04/09 04:15:07;;;;;;;1.35;1.30;;;6.60;99.90;;;;;;5028770;28;20382;-53
2022/04/09 04:17:40;;;;;;;1.30;1.30;;;6.70;99.90;;;;;;5030174;28;20164;-55
2022/04/09 04:20:07;;;;;;;2.65;1.63;;;6.50;99.90;;;;;;5030749;28;20107;-58
2022/04/09 04:22:33;;;;;;;1.60;1.50;;;6.40;99.90;;;;;;5029628;28;20112;-56
2022/04/09 04:24:59;;;;;;;1.70;1.60;;;6.30;99.90;;;;;;5029683;28;20143;-54
2022/04/09 04:27:25;;;;;;;1.90;1.70;;;6.20;99.90;;;;;;5029947;28;20107;-58
2022/04/09 04:29:51;;;;;;;1.70;1.70;;;6.10;99.90;;;;;;5030908;28;20423;-58
2022/04/09 04:32:16;;;;;;;4.03;1.90;;;6.00;99.90;;;;;;5031496;28;20067;-57
2022/04/09 04:34:42;;;;;;;1.83;1.73;;;5.80;99.90;;;;;;5031519;28;20123;-58
2022/04/09 04:37:08;;;;;;;2.53;2.33;;;5.70;99.90;;;;;;5030663;28;20029;-55
2022/04/09 04:39:34;;;;;;;2.17;2.08;;;5.50;99.90;;;;;;5030438;28;20048;-57
2022/04/09 04:41:59;;;;;;;1.75;1.73;;;5.30;99.90;;;;;;5031495;28;20021;-58
2022/04/09 04:44:25;;;;;;;2.15;2.05;;;5.20;99.90;;;;;;5030821;28;20029;-57
2022/04/09 04:46:51;;;;;;;2.60;2.40;;;5.00;99.90;;;;;;5031667;28;20029;-56
2022/04/09 04:49:16;;;;;;;2.22;2.13;;;4.80;99.90;;;;;;5030342;28;20552;-57
2022/04/09 04:51:42;;;;;;;2.47;2.38;;;4.60;99.90;;;;;;5030262;28;20029;-57
2022/04/09 04:54:08;;;;;;;2.20;2.10;;;4.60;99.90;;;;;;5030079;28;20029;-56
2022/04/09 04:56:33;;;;;;;2.50;2.40;;;4.50;99.90;;;;;;5031532;28;20037;-58
2022/04/09 04:58:59;;;;;;;2.30;2.20;;;4.40;99.90;;;;;;5030620;28;20028;-56
2022/04/09 05:01:25;;;;;;;2.55;2.45;;;4.30;99.90;;;;;;5029997;28;20024;-58
2022/04/09 05:03:50;;;;;;;2.70;2.50;;;4.30;99.90;;;;;;5030296;28;20484;-58
2022/04/09 05:06:16;;;;;;;2.08;1.98;;;4.30;99.90;;;;;;5031165;28;20029;-57
2022/04/09 05:08:42;;;;;;;2.70;2.50;;;4.30;99.90;;;;;;5030682;28;20036;-55
2022/04/09 05:11:07;;;;;;;2.40;2.30;;;4.20;99.90;;;;;;5029969;28;20060;-57
2022/04/09 05:13:34;;;;;;;2.90;2.70;;;4.10;99.90;;;;;;5030779;28;20056;-56
2022/04/09 05:15:59;;;;;;;2.70;2.55;;;4.20;99.90;;;;;;5034068;28;20025;-57
2022/04/09 05:18:25;;;;;;;2.88;2.67;;;4.10;99.90;;;;;;5034225;28;20080;-57
2022/04/09 05:20:51;;;;;;;3.40;3.10;;;4.10;99.90;;;;;;5035113;28;20091;-56
2022/04/09 05:23:17;;;;;;;4.80;2.90;;;4.10;99.90;;;;;;5032524;28;20064;-56
2022/04/09 05:25:43;;;;;;;2.88;2.67;;;4.10;99.90;;;;;;5034071;28;20045;-57
2022/04/09 05:28:08;;;;;;;3.97;3.53;;;4.10;99.90;;;;;;5033598;28;20083;-56
2022/04/09 05:30:35;;;;;;;5.93;3.50;;;4.10;99.90;;;;;;5033983;28;20023;-52
2022/04/09 05:33:01;;;;;;;3.33;3.13;;;4.00;99.90;;;;;;5033596;28;20057;-57
2022/04/09 05:35:27;;;;;;;3.22;3.03;;;4.00;99.90;;;;;;5034101;28;20031;-55
2022/04/09 05:37:53;;;;;;;4.30;4.00;;;4.10;99.90;;;;;;5033865;28;20496;-57
2022/04/09 05:40:19;;;;;;;3.75;3.45;;;4.00;99.90;;;;;;5033597;28;20048;-55
2022/04/09 05:42:45;;;;;;;3.00;2.80;;;4.00;99.90;;;;;;5033395;28;20284;-53
2022/04/09 05:45:11;;;;;;;7.75;3.72;;;4.10;99.90;;;;;;5033483;28;20051;-55
2022/04/09 05:47:45;;;;;;;3.83;3.53;;;4.10;99.90;;;;;;5033499;28;20367;-57
2022/04/09 05:50:12;;;;;;;4.35;4.05;;;4.20;99.90;;;;;;5033139;28;20117;-54
2022/04/09 05:52:39;;;;;;;3.40;3.20;;;4.20;99.90;;;;;;5033407;28;20037;-55
2022/04/09 05:55:06;;;;;;;3.97;3.67;;;4.10;99.90;;;;;;5033456;28;20029;-58
2022/04/09 05:57:33;;;;;;;4.72;4.32;;;4.10;99.90;;;;;;5033264;28;20120;-54
2022/04/09 05:59:59;;;;;;;3.55;3.35;;;4.00;99.90;;;;;;5033324;28;20029;-56
2022/04/09 06:02:25;;;;;;;3.97;3.67;;;4.10;99.90;;;;;;5033289;28;20017;-55
2022/04/09 06:04:50;;;;;;;3.72;3.42;;;4.00;99.90;;;;;;5033480;28;20029;-54
2022/04/09 06:07:17;;;;;;;4.07;3.63;;;4.10;99.90;;;;;;5033119;28;20041;-55
2022/04/09 06:09:44;;;;;;;3.85;3.53;;;4.00;99.90;;;;;;5033144;28;20017;-54
2022/04/09 06:12:11;;;;;;;4.55;4.15;;;4.00;99.90;;;;;;5032882;28;20022;-56
2022/04/09 06:14:36;;;;;;;3.83;3.58;;;4.00;99.90;;;;;;5032879;28;20029;-54
2022/04/09 06:17:02;;;;;;;4.40;3.90;;;4.00;99.90;;;;;;5032887;28;20029;-56
2022/04/09 06:19:29;;;;;;;4.43;4.05;;;4.00;99.90;;;;;;5033072;28;20030;-55
2022/04/09 06:21:58;;;;;;;4.15;3.75;;;4.00;99.90;;;;;;5032883;28;20025;-53
2022/04/09 06:24:23;;;;;;;4.35;3.85;;;3.90;99.90;;;;;;5032673;28;20079;-50
2022/04/09 06:26:49;;;;;;;4.05;3.75;;;4.00;99.90;;;;;;5032841;28;20029;-55
2022/04/09 06:29:15;;;;;;;4.90;3.75;;;4.00;99.90;;;;;;5032601;28;20041;-55
2022/04/09 06:31:40;;;;;;;5.53;4.43;;;4.00;99.90;;;;;;5032774;28;20025;-57
2022/04/09 06:34:06;;;;;;;4.53;4.13;;;4.00;99.90;;;;;;5032590;28;20393;-57
2022/04/09 06:36:32;;;;;;;3.92;3.63;;;4.00;99.90;;;;;;5032543;28;20084;-57
2022/04/09 06:38:57;;;;;;;4.97;4.57;;;4.10;99.90;;;;;;5032123;28;20034;-53
2022/04/09 06:41:23;;;;;;;11.40;5.15;;;4.00;99.90;;;;;;5033761;28;20017;-58
2022/04/09 06:43:49;;;;;;;5.18;4.72;;;4.10;99.90;;;;;;5033613;28;20022;-58
2022/04/09 06:46:15;;;;;;;8.90;5.60;;;4.10;99.90;;;;;;5033243;28;20025;-58
2022/04/09 06:48:41;;;;;;;7.07;5.85;;;4.00;99.90;;;;;;5033069;28;20017;-58
2022/04/09 06:51:07;;;;;;;7.00;4.72;;;4.00;99.90;;;;;;5033427;28;20117;-53
2022/04/09 06:53:33;;;;;;;9.02;5.78;;;4.00;99.90;;;;;;5033580;28;20571;-54
2022/04/09 06:55:59;;;;;;;5.10;4.60;;;4.00;99.90;;;;;;5033272;28;20056;-58
2022/04/09 06:58:24;;;;;;;5.43;4.95;;;4.10;99.90;;;;;;5032678;28;20078;-58
2022/04/09 07:00:50;;;;;;;6.10;5.40;;;4.00;99.90;;;;;;5031741;28;20080;-57
2022/04/09 07:03:16;;;;;;;6.53;4.93;;;4.00;99.90;;;;;;5032200;28;20147;-55
2022/04/09 07:05:42;;;;;;;5.57;5.00;;;4.00;99.90;;;;;;5031991;28;20377;-52
2022/04/09 07:08:08;;;;;;;6.55;5.13;;;4.10;99.90;;;;;;5031940;28;20034;-58
2022/04/09 07:10:38;;;;;;;8.20;5.72;;;4.10;99.90;;;;;;5031971;28;20311;-55
2022/04/09 07:13:05;;;;;;;6.43;5.45;;;3.90;99.90;;;;;;5031910;28;20040;-59
2022/04/09 07:15:31;;;;;;;9.27;6.28;;;3.80;99.90;;;;;;5031570;28;20049;-55
2022/04/09 07:17:57;;;;;;;6.75;6.05;;;3.80;99.90;;;;;;5031656;28;20033;-57
2022/04/09 07:20:22;;;;;;;6.93;6.07;;;3.70;99.90;;;;;;5031781;28;20461;-55
2022/04/09 07:22:48;;;;;;;6.65;6.00;;;3.70;99.90;;;;;;5031604;28;20056;-57
2022/04/09 07:25:16;;;;;;;8.75;6.78;;;3.70;99.90;;;;;;5031547;28;20022;-53
2022/04/09 07:27:47;;;;;;;9.02;6.40;;;3.70;99.90;;;;;;5031858;28;20017;-57
2022/04/09 07:30:18;;;;;;;10.50;6.40;;;3.60;99.90;;;;;;5031523;28;20108;-58
2022/04/09 07:32:45;;;;;;;8.88;6.05;;;3.70;99.90;;;;;;5031527;28;20033;-56
2022/04/09 07:35:11;;;;;;;7.00;6.30;;;3.70;99.90;;;;;;5028976;28;20087;-58
2022/04/09 07:37:41;;;;;;;27.65;8.20;;;3.70;99.90;;;;;;5030889;28;20030;-56
2022/04/09 07:40:09;;;;;;;7.97;6.35;;;3.50;99.90;;;;;;5031212;28;20025;-59
2022/04/09 07:42:34;;;;;;;8.27;6.85;;;3.40;99.90;;;;;;5031209;28;20041;-56
2022/04/09 07:45:00;;;;;;;10.20;7.40;;;3.30;99.90;;;;;;5030202;28;20159;-58
2022/04/09 07:47:26;;;;;;;7.65;6.90;;;3.20;99.90;;;;;;5031262;28;20014;-59
2022/04/09 07:49:51;;;;;;;7.75;6.97;;;3.30;99.90;;;;;;5031256;28;20515;-58
2022/04/09 07:52:17;;;;;;;8.85;7.07;;;3.30;99.90;;;;;;5031598;28;20029;-58
2022/04/09 07:54:43;;;;;;;8.70;7.00;;;3.30;99.90;;;;;;5031217;28;20456;-58
2022/04/09 07:57:08;;;;;;;6.78;6.15;;;3.30;99.90;;;;;;5031922;28;20112;-59
2022/04/09 07:59:34;;;;;;;7.80;7.00;;;3.30;99.90;;;;;;5032149;28;20025;-55
2022/04/09 08:02:00;;;;;;;8.75;7.78;;;3.30;99.90;;;;;;5030622;28;20707;-58
2022/04/09 08:04:25;;;;;;;8.65;7.78;;;3.30;99.90;;;;;;5032145;28;20817;-58
2022/04/09 08:06:51;;;;;;;8.00;7.20;;;3.40;99.90;;;;;;5032131;28;20088;-58
2022/04/09 08:09:17;;;;;;;7.43;6.72;;;3.30;99.90;;;;;;5032037;28;20026;-59
2022/04/09 08:11:43;;;;;;;6.60;6.00;;;3.20;99.90;;;;;;5031943;28;20045;-58
2022/04/09 08:14:09;;;;;;;6.97;6.28;;;3.20;99.90;;;;;;5031636;28;20077;-59
2022/04/09 08:16:35;;;;;;;6.72;6.13;;;3.30;99.90;;;;;;5030967;28;20140;-56
2022/04/09 08:19:03;;;;;;;7.03;6.43;;;3.20;99.90;;;;;;5031261;28;20437;-59
2022/04/09 08:21:28;;;;;;;7.68;6.88;;;3.20;99.90;;;;;;5031840;28;20453;-59
2022/04/09 08:23:54;;;;;;;8.15;7.35;;;3.20;99.90;;;;;;5032080;28;20038;-59
2022/04/09 08:26:20;;;;;;;8.73;7.93;;;3.20;99.90;;;;;;5030969;28;20013;-60
2022/04/09 08:28:45;;;;;;;8.82;7.80;;;3.30;99.90;;;;;;5030915;28;20600;-59
2022/04/09 08:31:11;;;;;;;9.77;8.82;;;3.40;99.90;;;;;;5031426;28;20025;-59
2022/04/09 08:33:40;;;;;;;11.05;8.45;;;3.40;99.90;;;;;;5031533;28;20489;-60
2022/04/09 08:36:06;;;;;;;8.93;8.02;;;3.60;99.90;;;;;;5031425;28;20035;-59
2022/04/09 08:38:31;;;;;;;9.63;8.48;;;3.80;99.90;;;;;;5031610;28;20475;-59
2022/04/09 08:40:58;;;;;;;9.55;8.55;;;4.20;99.90;;;;;;5031516;28;20029;-59
2022/04/09 08:43:25;;;;;;;9.40;8.00;;;4.20;99.90;;;;;;5031442;28;20017;-59
2022/04/09 08:45:51;;;;;;;9.50;8.57;;;4.60;99.90;;;;;;5031696;28;20072;-59
2022/04/09 08:48:20;;;;;;;12.45;9.27;;;4.70;99.90;;;;;;5030396;28;20029;-60
2022/04/09 08:50:47;;;;;;;9.48;8.05;;;4.70;99.90;;;;;;5031583;28;20018;-60
2022/04/09 08:53:13;;;;;;;12.02;8.07;;;4.60;99.90;;;;;;5031030;28;20060;-59
2022/04/09 08:55:40;;;;;;;11.98;8.85;;;4.80;99.90;;;;;;5031311;28;20054;-59
2022/04/09 08:58:06;;;;;;;16.98;9.93;;;4.80;99.90;;;;;;5031236;28;20588;-59
2022/04/09 09:00:32;;;;;;;10.55;9.07;;;4.50;99.90;;;;;;5031377;28;20031;-59
2022/04/09 09:03:00;;;;;;;11.13;8.45;;;4.60;99.90;;;;;;5031102;28;20578;-60
2022/04/09 09:05:54;;;;;;;10.90;9.02;;;4.50;99.90;;;;;;5031279;28;20101;-59
2022/04/09 09:08:41;;;;;;;10.13;9.13;;;4.40;99.90;;;;;;5031553;28;20045;-59
2022/04/09 09:11:07;;;;;;;10.43;8.77;;;4.50;99.90;;;;;;5031010;28;20040;-60
2022/04/09 09:13:46;;;;;;;11.85;9.63;;;4.60;99.90;;;;;;5030907;28;20041;-57
2022/04/09 09:16:31;;;;;;;11.90;9.90;;;4.60;99.90;;;;;;5030976;28;20029;-59
2022/04/09 09:19:04;;;;;;;11.40;10.27;;;4.80;99.90;;;;;;5030925;28;20041;-60
2022/04/09 09:21:30;;;;;;;19.08;11.18;;;4.80;99.90;;;;;;5031068;28;20438;-59
2022/04/09 09:24:13;;;;;;;12.88;9.55;;;5.10;99.90;;;;;;5030922;28;20030;-60
2022/04/09 09:26:39;;;;;;;10.38;9.05;;;5.40;99.90;;;;;;5031296;28;20115;-60
2022/04/09 09:29:05;;;;;;;12.23;9.05;;;5.70;99.90;;;;;;5031036;28;20112;-60
2022/04/09 09:31:43;;;;;;;11.43;10.23;;;5.80;99.90;;;;;;5031181;28;20114;-60
2022/04/09 09:34:13;;;;;;;10.77;9.50;;;6.00;99.90;;;;;;5030590;28;20061;-59
2022/04/09 09:36:41;;;;;;;8.93;8.02;;;6.70;99.90;;;;;;5030845;28;20022;-59
2022/04/09 09:39:08;;;;;;;8.90;7.80;;;7.20;99.90;;;;;;5030830;28;20056;-60
2022/04/09 09:41:34;;;;;;;9.23;8.25;;;6.90;99.90;;;;;;5030953;28;20033;-58
2022/04/09 09:44:05;;;;;;;11.90;8.35;;;6.70;99.90;;;;;;5030804;28;20097;-59
2022/04/09 09:46:31;;;;;;;9.63;6.90;;;5.90;99.90;;;;;;5030893;28;20026;-59
2022/04/09 09:48:57;;;;;;;10.60;8.18;;;6.00;99.90;;;;;;5030864;28;20021;-60
2022/04/09 09:51:24;;;;;;;8.90;7.45;;;5.80;99.90;;;;;;5030769;28;20022;-60
2022/04/09 09:53:50;;;;;;;8.40;7.38;;;5.80;99.90;;;;;;5030643;28;20091;-59
2022/04/09 09:56:41;;;;;;;9.07;7.03;;;6.10;99.90;;;;;;5030941;28;20435;-60
2022/04/09 09:59:12;;;;;;;9.57;7.82;;;6.60;99.90;;;;;;5031031;28;20018;-60
2022/04/09 10:01:39;;;;;;;9.70;6.88;;;6.90;99.90;;;;;;5034535;28;20022;-60
2022/04/09 10:04:06;;;;;;;10.93;8.07;;;7.40;99.90;;;;;;5033720;28;20045;-61
2022/04/09 10:06:35;;;;;;;12.05;7.32;;;7.60;99.90;;;;;;5033567;28;20025;-60
2022/04/09 10:09:06;;;;;;;14.45;6.88;;;7.30;99.90;;;;;;5033395;28;20033;-60
2022/04/09 10:11:36;;;;;;;9.23;6.70;;;7.10;99.90;;;;;;5034250;28;20084;-60
2022/04/09 10:14:03;;;;;;;7.95;6.20;;;7.00;99.90;;;;;;5023209;28;20042;-60
2022/04/09 10:16:33;;;;;;;7.93;6.50;;;6.80;99.90;;;;;;5024911;28;20052;-60
2022/04/09 10:19:00;;;;;;;9.27;6.18;;;7.00;99.90;;;;;;5043066;28;20408;-61
2022/04/09 10:21:31;;;;;;;9.40;6.80;;;7.10;99.90;;;;;;5043317;28;20074;-61
2022/04/09 10:23:58;;;;;;;11.48;7.22;;;6.90;99.90;;;;;;5043081;28;20036;-61
2022/04/09 10:26:27;;;;;;;10.80;6.03;;;6.70;99.90;;;;;;5042434;28;20067;-60
2022/04/09 10:29:04;;;;;;;8.68;7.65;;;6.90;99.90;;;;;;5042887;28;20037;-61
2022/04/09 10:31:29;;;;;;;7.20;6.50;;;7.40;99.90;;;;;;5043275;28;20025;-61
2022/04/09 10:33:57;;;;;;;7.25;6.43;;;7.20;99.90;;;;;;5042737;28;20102;-61
2022/04/09 10:36:41;;;;;;;7.95;6.32;;;7.60;99.90;;;;;;5042201;28;22310;-61
2022/04/09 10:39:22;;;;;;;8.50;5.95;;;7.80;99.90;;;;;;5042720;28;20040;-61
2022/04/09 10:41:49;;;;;;;6.63;6.03;;;7.80;99.90;;;;;;5039106;28;20396;-61
2022/04/09 10:44:33;;;;;;;7.07;5.95;;;7.80;99.90;;;;;;5022828;28;20041;-61
2022/04/09 10:47:04;;;;;;;6.45;5.43;;;7.70;99.90;;;;;;5028758;28;20052;-62
2022/04/09 10:49:30;;;;;;;6.93;5.10;;;8.00;99.90;;;;;;5022846;28;20371;-61
2022/04/09 10:52:05;;;;;;;15.77;5.40;;;7.90;99.20;;;;;;5022917;28;20040;-61
2022/04/09 10:54:30;;;;;;;5.90;4.57;;;8.60;99.90;;;;;;5042244;28;20111;-60
2022/04/09 10:57:06;;;;;;;5.60;4.50;;;8.60;97.80;;;;;;5043069;28;20108;-61
2022/04/09 10:59:33;;;;;;;12.45;6.82;;;8.50;97.10;;;;;;5036542;28;20026;-60
2022/04/09 11:01:59;;;;;;;7.05;4.78;;;8.40;98.40;;;;;;5022358;28;20034;-61
2022/04/09 11:04:37;;;;;;;10.40;4.65;;;7.70;99.90;;;;;;5022791;28;20036;-62
2022/04/09 11:07:19;;;;;;;4.82;4.32;;;7.30;99.90;;;;;;5021961;28;20022;-61
2022/04/09 11:10:04;;;;;;;6.75;3.92;;;7.30;99.90;;;;;;5022493;28;20061;-60
2022/04/09 11:12:50;;;;;;;3.97;3.67;;;8.00;99.90;;;;;;5021709;28;20034;-61
2022/04/09 11:15:16;;;;;;;6.40;3.70;;;8.10;96.30;;;;;;5022521;28;20041;-61
2022/04/09 11:17:45;;;;;;;4.18;3.03;;;8.80;96.80;;;;;;5021644;28;20034;-61
2022/04/09 11:20:45;;;;;;;4.93;3.53;;;8.20;92.70;;;;;;5022037;28;20052;-61
2022/04/09 11:23:19;;;;;;;6.03;3.13;;;9.20;93.30;;;;;;5022451;28;20030;-61
2022/04/09 11:25:46;;;;;;;5.85;3.10;;;8.60;92.30;;;;;;5022505;28;20047;-61
2022/04/09 11:28:16;;;;;;;7.43;2.95;;;8.70;93.80;;;;;;5022224;28;20132;-61
2022/04/09 11:30:55;;;;;;;2.50;2.30;;;9.10;90.90;;;;;;5021787;28;20773;-62
2022/04/09 11:33:22;;;;;;;4.03;2.13;;;9.50;84.40;;;;;;5021471;28;20492;-61
2022/04/09 11:35:48;;;;;;;3.05;2.63;;;10.10;80.40;;;;;;5021834;28;20079;-61
2022/04/09 11:38:13;;;;;;;5.22;2.30;;;10.60;76.80;;;;;;5022488;28;20041;-60
2022/04/09 11:40:46;;;;;;;5.65;2.42;;;10.70;77.30;;;;;;5021181;28;20022;-61
2022/04/09 11:43:13;;;;;;;5.70;2.30;;;10.80;74.20;;;;;;5022009;28;20025;-61
2022/04/09 11:45:39;;;;;;;4.10;2.65;;;10.80;72.40;;;;;;5021023;28;20420;-61
2022/04/09 11:48:05;;;;;;;3.55;2.50;;;10.90;73.30;;;;;;5021888;28;20045;-61
2022/04/09 11:50:39;;;;;;;2.72;2.38;;;9.30;73.80;;;;;;5022124;28;20032;-61
2022/04/09 11:53:22;;;;;;;11.32;3.15;;;8.70;79.80;;;;;;5021175;28;20044;-61
2022/04/09 11:55:49;;;;;;;2.93;2.70;;;8.40;81.90;;;;;;5020315;28;20402;-61
2022/04/09 11:58:15;;;;;;;4.20;3.03;;;8.10;86.70;;;;;;5020954;28;20389;-61
2022/04/09 12:00:44;;;;;;;4.68;3.25;;;7.80;83.70;;;;;;5021707;28;20038;-62
2022/04/09 12:03:10;;;;;;;4.28;2.85;;;7.60;84.70;;;;;;5021637;28;20033;-61
2022/04/09 12:05:39;;;;;;;6.05;4.88;;;8.50;90.90;;;;;;5021715;28;20472;-61
2022/04/09 12:08:11;;;;;;;7.43;2.80;;;9.30;85.60;;;;;;5022157;28;20025;-61
2022/04/09 12:10:49;;;;;;;6.53;2.50;;;10.40;82.80;;;;;;5021980;28;20041;-61
2022/04/09 12:13:15;;;;;;;4.60;2.85;;;12.10;78.00;;;;;;5020971;28;20036;-61
2022/04/09 12:15:41;;;;;;;4.88;2.03;;;11.70;75.00;;;;;;5021789;28;20469;-61
2022/04/09 12:18:28;;;;;;;6.97;2.60;;;12.00;73.50;;;;;;5019900;28;20056;-61
2022/04/09 12:20:53;;;;;;;4.97;3.63;;;12.50;69.10;;;;;;5021120;28;20346;-60
2022/04/09 12:23:33;;;;;;;4.50;2.60;;;13.40;63.20;;;;;;5020248;28;20075;-61
2022/04/09 12:26:00;;;;;;;4.20;2.10;;;13.00;62.20;;;;;;5020703;28;20021;-62
2022/04/09 12:28:32;;;;;;;7.32;4.13;;;11.80;60.40;;;;;;5020578;28;20045;-61
2022/04/09 12:31:00;;;;;;;6.07;2.83;;;10.50;63.90;;;;;;5020406;28;20037;-61
2022/04/09 12:33:26;;;;;;;9.18;3.33;;;9.50;68.60;;;;;;5021065;28;20034;-61
2022/04/09 12:36:04;;;;;;;5.93;2.75;;;8.50;72.30;;;;;;5021394;28;20078;-60
2022/04/09 12:38:35;;;;;;;4.65;3.08;;;8.50;81.30;;;;;;5020830;28;20037;-60
2022/04/09 12:41:04;;;;;;;3.28;2.90;;;9.50;77.80;;;;;;5021131;28;20076;-61
2022/04/09 12:43:35;;;;;;;4.93;2.35;;;10.20;78.10;;;;;;5020926;28;20021;-61
2022/04/09 12:46:06;;;;;;;4.03;2.30;;;11.10;74.30;;;;;;5021117;28;20029;-61
2022/04/09 12:48:50;;;;;;;5.68;2.72;;;12.10;71.90;;;;;;5020869;28;20560;-62
2022/04/09 12:51:27;;;;;;;3.92;2.20;;;13.50;68.00;;;;;;5020814;28;20100;-62
2022/04/09 12:53:53;;;;;;;3.20;2.00;;;15.10;63.20;;;;;;5020982;28;20029;-61
2022/04/09 12:56:19;;;;;;;5.35;2.17;;;14.00;61.00;;;;;;5021753;28;20574;-61
2022/04/09 12:58:46;;;;;;;6.78;3.20;;;13.10;62.20;;;;;;5020557;28;20140;-60